Time;durP1;ratioP1;P1;durP2;ratioP2;P2;SDS_P1;SDS_P2;PMS_P1;PMS_P2;Temp;Humidity;BMP_temperature;BMP_pressure;BME280_temperature;BME280_humidity;BME280_pressure;Samples;Min_cycle;Max_cycle;Signal;HPM_P1;HPM_P2
2022/08/21 00:02:15;;;;;;;0.00;0.00;;;;;;;;;;5054149;28;20060;-80
2022/08/21 00:04:41;;;;;;;0.00;0.00;;;;;;;;;;5073211;28;20040;-81
2022/08/21 00:07:07;;;;;;;0.00;0.00;;;;;;;;;;5055123;28;20063;-80
2022/08/21 00:09:33;;;;;;;0.00;0.00;;;;;;;;;;5055052;28;20498;-81
2022/08/21 00:11:59;;;;;;;0.00;0.00;;;;;;;;;;5054649;28;20058;-81
2022/08/21 00:14:25;;;;;;;0.00;0.00;;;;;;;;;;5055184;28;20045;-80
2022/08/21 00:16:51;;;;;;;0.00;0.00;;;;;;;;;;5054553;28;20093;-80
2022/08/21 00:19:17;;;;;;;0.00;0.00;;;;;;;;;;5072771;28;20044;-79
2022/08/21 00:21:43;;;;;;;0.00;0.00;;;;;;;;;;5054620;28;20047;-80
2022/08/21 00:24:09;;;;;;;0.10;0.00;;;;;;;;;;5054883;28;20044;-80
2022/08/21 00:26:35;;;;;;;0.00;0.00;;;;;;;;;;5054786;28;20048;-80
2022/08/21 00:29:01;;;;;;;0.00;0.00;;;;;;;;;;5054545;28;20070;-80
2022/08/21 00:31:27;;;;;;;0.00;0.00;;;;;;;;;;5055104;28;20041;-80
2022/08/21 00:33:53;;;;;;;0.00;0.00;;;;;;;;;;5054401;28;20055;-81
2022/08/21 00:36:19;;;;;;;0.00;0.00;;;;;;;;;;5054680;28;20048;-80
2022/08/21 00:38:45;;;;;;;0.00;0.00;;;;;;;;;;5054791;28;20047;-81
2022/08/21 00:41:11;;;;;;;0.00;0.00;;;;;;;;;;5054681;28;20471;-82
2022/08/21 00:43:39;;;;;;;0.00;0.00;;;;;;;;;;5072601;28;20099;-80
2022/08/21 00:46:05;;;;;;;0.00;0.00;;;;;;;;;;5054568;28;20076;-79
2022/08/21 00:48:32;;;;;;;0.00;0.00;;;;;;;;;;5054462;28;20061;-81
2022/08/21 00:51:22;;;;;;;0.00;0.00;;;;;;;;;;5072734;28;20079;-80
2022/08/21 00:53:52;;;;;;;0.00;0.00;;;;;;;;;;5054569;28;20049;-79
2022/08/21 00:56:19;;;;;;;0.00;0.00;;;;;;;;;;5072610;28;20087;-80
2022/08/21 00:58:45;;;;;;;0.00;0.00;;;;;;;;;;5072042;28;20110;-80
2022/08/21 01:01:12;;;;;;;0.00;0.00;;;;;;;;;;5072542;28;20040;-79
2022/08/21 01:03:38;;;;;;;0.00;0.00;;;;;;;;;;5072496;28;20036;-81
2022/08/21 01:06:05;;;;;;;0.00;0.00;;;;;;;;;;5054368;28;20044;-80
2022/08/21 01:08:32;;;;;;;0.00;0.00;;;;;;;;;;5054572;28;20091;-79
2022/08/21 01:10:59;;;;;;;0.00;0.00;;;;;;;;;;5054347;28;20036;-81
2022/08/21 01:13:25;;;;;;;0.00;0.00;;;;;;;;;;5054722;28;20122;-80
2022/08/21 01:15:53;;;;;;;0.00;0.00;;;;;;;;;;5076312;28;20040;-80
2022/08/21 01:18:20;;;;;;;0.00;0.00;;;;;;;;;;5058086;28;20483;-79
2022/08/21 01:21:12;;;;;;;0.00;0.00;;;;;;;;;;5076177;28;20036;-80
2022/08/21 01:23:39;;;;;;;0.00;0.00;;;;;;;;;;5037602;28;20483;-80
2022/08/21 01:26:06;;;;;;;0.00;0.00;;;;;;;;;;5076068;28;20044;-80
2022/08/21 01:28:34;;;;;;;0.00;0.00;;;;;;;;;;5057882;28;20540;-79
2022/08/21 01:31:01;;;;;;;0.00;0.00;;;;;;;;;;5057811;28;20045;-80
2022/08/21 01:33:27;;;;;;;0.00;0.00;;;;;;;;;;5057608;28;20040;-80
2022/08/21 01:35:53;;;;;;;0.00;0.00;;;;;;;;;;5075792;28;20056;-80
2022/08/21 01:38:19;;;;;;;0.00;0.00;;;;;;;;;;5075333;28;20043;-80
2022/08/21 01:40:45;;;;;;;0.00;0.00;;;;;;;;;;5057695;28;20040;-80
2022/08/21 01:43:11;;;;;;;0.00;0.00;;;;;;;;;;5057605;28;20059;-80
2022/08/21 01:45:37;;;;;;;0.00;0.00;;;;;;;;;;5075736;28;20522;-80
2022/08/21 01:48:04;;;;;;;0.00;0.00;;;;;;;;;;5057363;28;20141;-79
2022/08/21 01:50:30;;;;;;;0.00;0.00;;;;;;;;;;5075678;28;20075;-79
2022/08/21 01:52:56;;;;;;;0.00;0.00;;;;;;;;;;5057071;28;20078;-81
2022/08/21 01:55:22;;;;;;;0.00;0.00;;;;;;;;;;5075497;28;20036;-79
2022/08/21 01:57:48;;;;;;;0.00;0.00;;;;;;;;;;5075040;28;20171;-80
2022/08/21 02:00:16;;;;;;;0.00;0.00;;;;;;;;;;5075512;28;20040;-80
2022/08/21 02:02:42;;;;;;;0.00;0.00;;;;;;;;;;5057173;28;20047;-79
2022/08/21 02:05:09;;;;;;;0.00;0.00;;;;;;;;;;5075254;28;20051;-80
2022/08/21 02:07:40;;;;;;;0.00;0.00;;;;;;;;;;5057154;28;20119;-80
2022/08/21 02:10:07;;;;;;;0.00;0.00;;;;;;;;;;5057235;28;20048;-80
2022/08/21 02:12:33;;;;;;;0.00;0.00;;;;;;;;;;5057125;28;20228;-80
2022/08/21 02:15:00;;;;;;;0.00;0.00;;;;;;;;;;5057042;28;20165;-80
2022/08/21 02:17:26;;;;;;;0.00;0.00;;;;;;;;;;5056996;28;20529;-79
2022/08/21 02:19:52;;;;;;;0.00;0.00;;;;;;;;;;5074641;28;20072;-80
2022/08/21 02:22:18;;;;;;;0.00;0.00;;;;;;;;;;5075126;28;20285;-80
2022/08/21 02:24:44;;;;;;;0.00;0.00;;;;;;;;;;5056499;28;20257;-80
2022/08/21 02:27:10;;;;;;;0.00;0.00;;;;;;;;;;5074990;28;20044;-80
2022/08/21 02:29:36;;;;;;;0.00;0.00;;;;;;;;;;5074715;28;20410;-80
2022/08/21 02:32:02;;;;;;;0.00;0.00;;;;;;;;;;5056871;28;20051;-80
2022/08/21 02:34:28;;;;;;;0.00;0.00;;;;;;;;;;5074344;28;20044;-80
2022/08/21 02:36:54;;;;;;;0.00;0.00;;;;;;;;;;5056619;28;20040;-80
2022/08/21 02:39:20;;;;;;;0.00;0.00;;;;;;;;;;5074523;28;20052;-80
2022/08/21 02:41:46;;;;;;;0.00;0.00;;;;;;;;;;5074620;28;20681;-81
2022/08/21 02:44:12;;;;;;;0.00;0.00;;;;;;;;;;5074438;28;20040;-80
2022/08/21 02:46:38;;;;;;;0.00;0.00;;;;;;;;;;5074571;28;20479;-80
2022/08/21 02:49:04;;;;;;;0.00;0.00;;;;;;;;;;5073981;28;20145;-80
2022/08/21 02:51:30;;;;;;;0.00;0.00;;;;;;;;;;5039565;28;20036;-80
2022/08/21 02:53:56;;;;;;;0.00;0.00;;;;;;;;;;5074232;28;20127;-79
2022/08/21 02:56:22;;;;;;;0.00;0.00;;;;;;;;;;5056466;28;20063;-79
2022/08/21 02:58:51;;;;;;;0.00;0.00;;;;;;;;;;5073743;28;20071;-80
2022/08/21 03:01:17;;;;;;;0.00;0.00;;;;;;;;;;5074025;28;20037;-80
2022/08/21 03:03:44;;;;;;;0.00;0.00;;;;;;;;;;5056160;28;20460;-80
2022/08/21 03:06:11;;;;;;;0.00;0.00;;;;;;;;;;5074177;28;20434;-80
2022/08/21 03:08:38;;;;;;;0.00;0.00;;;;;;;;;;5073921;28;20119;-80
2022/08/21 03:11:04;;;;;;;0.00;0.00;;;;;;;;;;5073989;28;20082;-81
2022/08/21 03:13:31;;;;;;;0.00;0.00;;;;;;;;;;5055696;28;20040;-80
2022/08/21 03:15:57;;;;;;;0.00;0.00;;;;;;;;;;5073981;28;20040;-80
2022/08/21 03:18:23;;;;;;;0.00;0.00;;;;;;;;;;5074222;28;20370;-78
2022/08/21 03:20:50;;;;;;;0.00;0.00;;;;;;;;;;5055572;28;20166;-80
2022/08/21 03:23:17;;;;;;;0.00;0.00;;;;;;;;;;5039198;28;20087;-79
2022/08/21 03:25:43;;;;;;;0.00;0.00;;;;;;;;;;5055738;28;20048;-79
2022/08/21 03:28:11;;;;;;;0.00;0.00;;;;;;;;;;5055604;28;20050;-80
2022/08/21 03:30:37;;;;;;;0.00;0.00;;;;;;;;;;5055264;28;20502;-79
2022/08/21 03:33:03;;;;;;;0.00;0.00;;;;;;;;;;5055386;28;20123;-80
2022/08/21 03:35:29;;;;;;;0.00;0.00;;;;;;;;;;5054831;28;20040;-80
2022/08/21 03:37:55;;;;;;;0.00;0.00;;;;;;;;;;5073231;28;20094;-80
2022/08/21 03:40:24;;;;;;;0.00;0.00;;;;;;;;;;5055162;28;20090;-79
2022/08/21 03:42:51;;;;;;;0.00;0.00;;;;;;;;;;5073213;28;20132;-80
2022/08/21 03:45:17;;;;;;;0.00;0.00;;;;;;;;;;5073170;28;20041;-80
2022/08/21 03:47:54;;;;;;;0.00;0.00;;;;;;;;;;5055551;28;20198;-80
2022/08/21 03:50:20;;;;;;;0.00;0.00;;;;;;;;;;5055274;28;20117;-80
2022/08/21 03:52:46;;;;;;;0.00;0.00;;;;;;;;;;5038472;28;20048;-79
2022/08/21 03:55:11;;;;;;;0.00;0.00;;;;;;;;;;5072988;28;20044;-80
2022/08/21 03:57:37;;;;;;;0.00;0.00;;;;;;;;;;5073040;28;20044;-79
2022/08/21 04:00:04;;;;;;;0.00;0.00;;;;;;;;;;5073110;28;20120;-81
2022/08/21 04:02:32;;;;;;;0.00;0.00;;;;;;;;;;5073202;28;20102;-80
2022/08/21 04:04:58;;;;;;;0.00;0.00;;;;;;;;;;5054903;28;20040;-80
2022/08/21 04:07:24;;;;;;;0.00;0.00;;;;;;;;;;5073035;28;20037;-80
2022/08/21 04:09:50;;;;;;;0.00;0.00;;;;;;;;;;5072826;28;20478;-80
2022/08/21 04:12:16;;;;;;;0.00;0.00;;;;;;;;;;5072855;28;20037;-81
2022/08/21 04:14:42;;;;;;;0.00;0.00;;;;;;;;;;5054667;28;20036;-80
2022/08/21 04:17:08;;;;;;;0.00;0.00;;;;;;;;;;5054911;28;20040;-80
2022/08/21 04:19:34;;;;;;;0.00;0.00;;;;;;;;;;5054487;28;20402;-80
2022/08/21 04:22:00;;;;;;;0.00;0.00;;;;;;;;;;5054907;28;20129;-80
2022/08/21 04:24:26;;;;;;;0.00;0.00;;;;;;;;;;5072825;28;20040;-80
2022/08/21 04:26:52;;;;;;;0.00;0.00;;;;;;;;;;5072684;28;20040;-81
2022/08/21 04:29:18;;;;;;;0.00;0.00;;;;;;;;;;5054582;28;20062;-81
2022/08/21 04:31:44;;;;;;;0.00;0.00;;;;;;;;;;5072884;28;20473;-80
2022/08/21 04:34:10;;;;;;;0.00;0.00;;;;;;;;;;5054543;28;20123;-80
2022/08/21 04:36:36;;;;;;;0.00;0.00;;;;;;;;;;5054585;28;20046;-80
2022/08/21 04:39:02;;;;;;;0.00;0.00;;;;;;;;;;5054656;28;20506;-80
2022/08/21 04:41:28;;;;;;;0.00;0.00;;;;;;;;;;5072588;28;20033;-79
2022/08/21 04:43:55;;;;;;;0.00;0.00;;;;;;;;;;5072812;28;20058;-80
2022/08/21 04:46:21;;;;;;;0.00;0.00;;;;;;;;;;5054505;28;20127;-80
2022/08/21 04:48:48;;;;;;;0.00;0.00;;;;;;;;;;5075970;28;20071;-80
2022/08/21 04:51:19;;;;;;;0.00;0.00;;;;;;;;;;5076513;28;20391;-80
2022/08/21 04:53:45;;;;;;;0.00;0.00;;;;;;;;;;5076693;28;20068;-80
2022/08/21 04:56:22;;;;;;;0.00;0.00;;;;;;;;;;5076233;28;20087;-80
2022/08/21 04:58:49;;;;;;;0.00;0.00;;;;;;;;;;5076299;28;20052;-80
2022/08/21 05:01:17;;;;;;;0.00;0.00;;;;;;;;;;5058119;28;20093;-80
2022/08/21 05:03:44;;;;;;;0.00;0.00;;;;;;;;;;5076381;28;20531;-80
2022/08/21 05:06:11;;;;;;;0.00;0.00;;;;;;;;;;5058100;28;20049;-80
2022/08/21 05:08:38;;;;;;;0.00;0.00;;;;;;;;;;5058615;28;20045;-80
2022/08/21 05:11:05;;;;;;;0.00;0.00;;;;;;;;;;5076173;28;20048;-80
2022/08/21 05:13:31;;;;;;;0.00;0.00;;;;;;;;;;5058205;28;20056;-81
2022/08/21 05:15:58;;;;;;;0.00;0.00;;;;;;;;;;5058227;28;20041;-81
2022/08/21 05:18:24;;;;;;;0.00;0.00;;;;;;;;;;5058425;28;20091;-80
2022/08/21 05:20:50;;;;;;;0.00;0.00;;;;;;;;;;5057905;28;20479;-81
2022/08/21 05:23:17;;;;;;;0.00;0.00;;;;;;;;;;5076003;28;20047;-80
2022/08/21 05:25:43;;;;;;;0.00;0.00;;;;;;;;;;5057744;28;20048;-80
2022/08/21 05:28:10;;;;;;;0.00;0.00;;;;;;;;;;5076054;28;20048;-79
2022/08/21 05:30:37;;;;;;;0.00;0.00;;;;;;;;;;5057676;28;20128;-79
2022/08/21 05:33:04;;;;;;;0.00;0.00;;;;;;;;;;5075861;28;20044;-80
2022/08/21 05:35:30;;;;;;;0.00;0.00;;;;;;;;;;5075417;28;20403;-80
2022/08/21 05:37:56;;;;;;;0.00;0.00;;;;;;;;;;5057957;28;20047;-80
2022/08/21 05:40:23;;;;;;;0.00;0.00;;;;;;;;;;5057765;28;20067;-81
2022/08/21 05:42:49;;;;;;;0.00;0.00;;;;;;;;;;5057564;28;20060;-80
2022/08/21 05:45:15;;;;;;;0.00;0.00;;;;;;;;;;5075472;28;20147;-80
2022/08/21 05:47:41;;;;;;;0.00;0.00;;;;;;;;;;5075681;28;20036;-81
2022/08/21 05:50:07;;;;;;;0.00;0.00;;;;;;;;;;5075447;28;20086;-79
2022/08/21 05:52:33;;;;;;;0.00;0.00;;;;;;;;;;5057512;28;20378;-81
2022/08/21 05:54:59;;;;;;;0.00;0.00;;;;;;;;;;5041097;28;20044;-81
2022/08/21 05:57:26;;;;;;;0.00;0.00;;;;;;;;;;5048795;28;20492;-80
2022/08/21 05:59:52;;;;;;;0.00;0.00;;;;;;;;;;5033216;28;20048;-81
2022/08/21 06:02:18;;;;;;;0.00;0.00;;;;;;;;;;5035210;28;20124;-81
2022/08/21 06:04:44;;;;;;;0.00;0.00;;;;;;;;;;5035274;28;20177;-81
2022/08/21 06:07:11;;;;;;;0.00;0.00;;;;;;;;;;5035243;28;20068;-81
2022/08/21 06:09:37;;;;;;;0.00;0.00;;;;;;;;;;5035467;28;20092;-82
2022/08/21 06:12:13;;;;;;;0.00;0.00;;;;;;;;;;5035022;28;20049;-81
2022/08/21 06:14:40;;;;;;;0.00;0.00;;;;;;;;;;5035343;28;20048;-80
2022/08/21 06:17:07;;;;;;;0.00;0.00;;;;;;;;;;5035081;28;20037;-81
2022/08/21 06:19:33;;;;;;;0.00;0.00;;;;;;;;;;5033700;28;20037;-80
2022/08/21 06:21:59;;;;;;;0.00;0.00;;;;;;;;;;5046919;28;20061;-78
2022/08/21 06:24:26;;;;;;;0.00;0.00;;;;;;;;;;5040901;28;20044;-80
2022/08/21 06:26:52;;;;;;;0.00;0.00;;;;;;;;;;5033630;28;20392;-80
2022/08/21 06:29:19;;;;;;;0.00;0.00;;;;;;;;;;5035013;28;20037;-80
2022/08/21 06:31:46;;;;;;;0.00;0.00;;;;;;;;;;5033547;28;20065;-80
2022/08/21 06:34:12;;;;;;;0.00;0.00;;;;;;;;;;5033358;28;20049;-80
2022/08/21 06:36:38;;;;;;;0.00;0.00;;;;;;;;;;5034665;28;20087;-80
2022/08/21 06:39:04;;;;;;;0.00;0.00;;;;;;;;;;5033560;28;20431;-80
2022/08/21 06:41:30;;;;;;;0.00;0.00;;;;;;;;;;5016492;28;20033;-80
2022/08/21 06:43:57;;;;;;;0.00;0.00;;;;;;;;;;5034511;28;20393;-80
2022/08/21 06:46:24;;;;;;;0.00;0.00;;;;;;;;;;5034401;28;20038;-81
2022/08/21 06:48:50;;;;;;;0.00;0.00;;;;;;;;;;5033350;28;20400;-80
2022/08/21 06:51:17;;;;;;;0.00;0.00;;;;;;;;;;5034244;28;20049;-81
2022/08/21 06:53:43;;;;;;;0.00;0.00;;;;;;;;;;5034463;28;20049;-80
2022/08/21 06:56:09;;;;;;;0.00;0.00;;;;;;;;;;5034257;28;20069;-80
2022/08/21 06:58:35;;;;;;;0.00;0.00;;;;;;;;;;5063319;28;20127;-80
2022/08/21 07:01:01;;;;;;;0.00;0.00;;;;;;;;;;5055970;28;20044;-80
2022/08/21 07:03:29;;;;;;;0.00;0.00;;;;;;;;;;5056074;28;20044;-80
2022/08/21 07:05:57;;;;;;;0.00;0.00;;;;;;;;;;5074025;28;20040;-81
2022/08/21 07:08:24;;;;;;;0.00;0.00;;;;;;;;;;5056034;28;20080;-81
2022/08/21 07:10:50;;;;;;;0.00;0.00;;;;;;;;;;5073840;28;20051;-81
2022/08/21 07:13:16;;;;;;;0.00;0.00;;;;;;;;;;5055762;28;20055;-80
2022/08/21 07:15:42;;;;;;;0.00;0.00;;;;;;;;;;5056074;28;20040;-80
2022/08/21 07:18:09;;;;;;;0.00;0.00;;;;;;;;;;5055597;28;20047;-79
2022/08/21 07:20:35;;;;;;;0.00;0.00;;;;;;;;;;5055768;28;20079;-79
2022/08/21 07:23:03;;;;;;;0.00;0.00;;;;;;;;;;5073682;28;20040;-80
2022/08/21 07:25:29;;;;;;;0.00;0.00;;;;;;;;;;5073910;28;20123;-80
2022/08/21 07:27:55;;;;;;;0.00;0.00;;;;;;;;;;5073656;28;20055;-80
2022/08/21 07:30:22;;;;;;;0.00;0.00;;;;;;;;;;5055549;28;20037;-79
2022/08/21 07:32:51;;;;;;;0.00;0.00;;;;;;;;;;5055175;28;20048;-80
2022/08/21 07:35:18;;;;;;;0.00;0.00;;;;;;;;;;5073674;28;20068;-80
2022/08/21 07:37:44;;;;;;;0.00;0.00;;;;;;;;;;5055284;28;20479;-80
2022/08/21 07:40:10;;;;;;;0.00;0.00;;;;;;;;;;5073550;28;20036;-79
2022/08/21 07:42:40;;;;;;;0.00;0.00;;;;;;;;;;5073066;28;20124;-80
2022/08/21 07:45:06;;;;;;;0.70;0.15;;;;;;;;;;5070053;28;20040;-79
2022/08/21 07:47:32;;;;;;;0.00;0.00;;;;;;;;;;5035158;28;20087;-81
2022/08/21 07:49:58;;;;;;;0.00;0.00;;;;;;;;;;5035381;28;20044;-80
2022/08/21 07:52:24;;;;;;;0.00;0.00;;;;;;;;;;5035230;28;20083;-80
2022/08/21 07:54:50;;;;;;;0.00;0.00;;;;;;;;;;5053295;28;20490;-80
2022/08/21 07:57:16;;;;;;;0.00;0.00;;;;;;;;;;5035216;28;20045;-80
2022/08/21 07:59:42;;;;;;;0.00;0.00;;;;;;;;;;5053330;28;20048;-80
2022/08/21 08:02:08;;;;;;;0.00;0.00;;;;;;;;;;5052933;28;20037;-80
2022/08/21 08:04:34;;;;;;;0.00;0.00;;;;;;;;;;5035088;28;20060;-80
2022/08/21 08:07:00;;;;;;;0.00;0.00;;;;;;;;;;5052774;28;20033;-80
2022/08/21 08:09:26;;;;;;;0.00;0.00;;;;;;;;;;5053035;28;20037;-79
2022/08/21 08:11:52;;;;;;;0.00;0.00;;;;;;;;;;5034806;28;20451;-80
2022/08/21 08:14:18;;;;;;;0.00;0.00;;;;;;;;;;5034954;28;20045;-80
2022/08/21 08:16:44;;;;;;;0.00;0.00;;;;;;;;;;5034962;28;20174;-80
2022/08/21 08:19:10;;;;;;;0.00;0.00;;;;;;;;;;5034960;28;20381;-80
2022/08/21 08:21:37;;;;;;;0.00;0.00;;;;;;;;;;5052355;28;20033;-80
2022/08/21 08:24:03;;;;;;;0.00;0.00;;;;;;;;;;5052748;28;20120;-80
2022/08/21 08:26:29;;;;;;;0.00;0.00;;;;;;;;;;5052848;28;20095;-79
2022/08/21 08:28:55;;;;;;;0.00;0.00;;;;;;;;;;5034953;28;20048;-79
2022/08/21 08:31:21;;;;;;;0.00;0.00;;;;;;;;;;5035129;28;20083;-79
2022/08/21 08:33:47;;;;;;;0.00;0.00;;;;;;;;;;5052299;28;20546;-80
2022/08/21 08:36:20;;;;;;;0.00;0.00;;;;;;;;;;5052853;28;20045;-80
2022/08/21 08:38:47;;;;;;;0.00;0.00;;;;;;;;;;5034637;28;20476;-80
2022/08/21 08:41:22;;;;;;;0.00;0.00;;;;;;;;;;5034606;28;20037;-80
2022/08/21 08:43:55;;;;;;;0.00;0.00;;;;;;;;;;5034653;28;20048;-81
2022/08/21 08:46:34;;;;;;;0.00;0.00;;;;;;;;;;5052717;28;20051;-80
2022/08/21 08:49:07;;;;;;;0.00;0.00;;;;;;;;;;5034487;28;20510;-81
2022/08/21 08:51:39;;;;;;;0.00;0.00;;;;;;;;;;5052470;28;20170;-80
2022/08/21 08:54:08;;;;;;;0.00;0.00;;;;;;;;;;5034369;28;20163;-81
2022/08/21 08:56:34;;;;;;;0.00;0.00;;;;;;;;;;5052628;28;20112;-80
2022/08/21 08:59:03;;;;;;;0.00;0.00;;;;;;;;;;5051986;28;20559;-81
2022/08/21 09:01:29;;;;;;;0.00;0.00;;;;;;;;;;5034508;28;20041;-81
2022/08/21 09:03:57;;;;;;;0.00;0.00;;;;;;;;;;5034275;28;20377;-80
2022/08/21 09:06:42;;;;;;;0.00;0.00;;;;;;;;;;5052277;28;20456;-81
2022/08/21 09:09:08;;;;;;;0.00;0.00;;;;;;;;;;5017881;28;20148;-81
2022/08/21 09:11:46;;;;;;;0.00;0.00;;;;;;;;;;5052262;28;20068;-81
2022/08/21 09:14:24;;;;;;;0.00;0.00;;;;;;;;;;5034282;28;20087;-81
2022/08/21 09:17:05;;;;;;;0.00;0.00;;;;;;;;;;5052557;28;20037;-81
2022/08/21 09:19:31;;;;;;;0.00;0.00;;;;;;;;;;5034454;28;20045;-81
2022/08/21 09:22:11;;;;;;;0.00;0.00;;;;;;;;;;5034260;28;20037;-81
2022/08/21 09:24:52;;;;;;;0.00;0.00;;;;;;;;;;5034700;28;20037;-80
2022/08/21 09:27:18;;;;;;;0.00;0.00;;;;;;;;;;5052216;28;20051;-82
2022/08/21 09:29:47;;;;;;;0.00;0.00;;;;;;;;;;5034410;28;20041;-81
2022/08/21 09:32:24;;;;;;;0.00;0.00;;;;;;;;;;5034129;28;20048;-81
2022/08/21 09:35:01;;;;;;;0.00;0.00;;;;;;;;;;5036066;28;20094;-81
2022/08/21 09:37:29;;;;;;;0.00;0.00;;;;;;;;;;5055674;28;20040;-81
2022/08/21 09:39:57;;;;;;;0.00;0.00;;;;;;;;;;5055977;28;20112;-81
2022/08/21 09:42:25;;;;;;;0.00;0.00;;;;;;;;;;5037817;28;20040;-81
2022/08/21 09:45:04;;;;;;;0.00;0.00;;;;;;;;;;5038023;28;20064;-81
2022/08/21 09:47:30;;;;;;;0.00;0.00;;;;;;;;;;5055436;28;20395;-81
2022/08/21 09:50:07;;;;;;;0.00;0.00;;;;;;;;;;5037526;28;20033;-81
2022/08/21 09:52:33;;;;;;;0.00;0.00;;;;;;;;;;5055097;28;20395;-81
2022/08/21 09:54:59;;;;;;;0.00;0.00;;;;;;;;;;5037798;28;20437;-82
2022/08/21 09:57:39;;;;;;;0.00;0.00;;;;;;;;;;5037515;28;20052;-82
2022/08/21 10:00:24;;;;;;;0.00;0.00;;;;;;;;;;5055606;28;20045;-82
2022/08/21 10:02:50;;;;;;;0.00;0.00;;;;;;;;;;5037217;28;20041;-81
2022/08/21 10:05:18;;;;;;;0.00;0.00;;;;;;;;;;5037361;28;20376;-82
2022/08/21 10:07:44;;;;;;;0.00;0.00;;;;;;;;;;5054886;28;20557;-81
2022/08/21 10:10:26;;;;;;;0.00;0.00;;;;;;;;;;5037237;28;20087;-82
2022/08/21 10:13:02;;;;;;;0.00;0.00;;;;;;;;;;5037012;28;20055;-82
2022/08/21 10:15:36;;;;;;;0.00;0.00;;;;;;;;;;5055036;28;20048;-81
2022/08/21 10:18:05;;;;;;;0.00;0.00;;;;;;;;;;5055111;28;20037;-82
2022/08/21 10:20:38;;;;;;;0.00;0.00;;;;;;;;;;5037137;28;20130;-81
2022/08/21 10:23:33;;;;;;;0.00;0.00;;;;;;;;;;5054715;28;20076;-85
2022/08/21 10:26:06;;;;;;;0.00;0.00;;;;;;;;;;4966732;28;20055;-89
2022/08/21 10:28:48;;;;;;;0.00;0.00;;;;;;;;;;5036691;28;20048;-82
2022/08/21 10:31:26;;;;;;;0.00;0.00;;;;;;;;;;5036789;28;20067;-81
2022/08/21 10:34:16;;;;;;;0.00;0.00;;;;;;;;;;5036565;28;20097;-82
2022/08/21 10:36:47;;;;;;;0.00;0.00;;;;;;;;;;5036768;28;20092;-82
2022/08/21 10:39:28;;;;;;;0.00;0.00;;;;;;;;;;5055018;28;20041;-82
2022/08/21 10:42:18;;;;;;;0.00;0.00;;;;;;;;;;5037229;28;20056;-80
2022/08/21 10:44:44;;;;;;;0.00;0.00;;;;;;;;;;5054337;28;20112;-81
2022/08/21 10:47:10;;;;;;;0.00;0.00;;;;;;;;;;5036293;28;20479;-82
2022/08/21 10:49:36;;;;;;;0.00;0.00;;;;;;;;;;5054286;28;20033;-81
2022/08/21 10:52:02;;;;;;;0.00;0.00;;;;;;;;;;5054358;28;20171;-89
2022/08/21 10:54:28;;;;;;;0.00;0.00;;;;;;;;;;5054278;28;20040;-82
2022/08/21 10:56:59;;;;;;;0.00;0.00;;;;;;;;;;5054359;28;20037;-82
2022/08/21 10:59:44;;;;;;;0.00;0.00;;;;;;;;;;5054314;28;20112;-82
2022/08/21 11:02:16;;;;;;;0.00;0.00;;;;;;;;;;5036821;28;20048;-82
2022/08/21 11:05:02;;;;;;;0.00;0.00;;;;;;;;;;5036259;28;20063;-82
2022/08/21 11:07:40;;;;;;;0.00;0.00;;;;;;;;;;5053601;28;20056;-83
2022/08/21 11:10:27;;;;;;;0.00;0.00;;;;;;;;;;5036381;28;20491;-82
2022/08/21 11:12:56;;;;;;;0.00;0.00;;;;;;;;;;5053690;28;20171;-83
2022/08/21 11:15:32;;;;;;;0.00;0.00;;;;;;;;;;5053580;28;20037;-82
2022/08/21 11:18:18;;;;;;;0.00;0.00;;;;;;;;;;5036331;28;20098;-82
2022/08/21 11:20:51;;;;;;;0.00;0.00;;;;;;;;;;4986987;28;20130;-81
2022/08/21 11:23:17;;;;;;;0.00;0.00;;;;;;;;;;5034966;28;20068;-82
2022/08/21 11:25:54;;;;;;;0.00;0.00;;;;;;;;;;5035819;28;20464;-82
2022/08/21 11:28:23;;;;;;;0.00;0.00;;;;;;;;;;5053591;28;20041;-83
2022/08/21 11:31:07;;;;;;;0.00;0.00;;;;;;;;;;5053766;28;20036;-83
2022/08/21 11:33:50;;;;;;;0.00;0.00;;;;;;;;;;5053469;28;20086;-84
2022/08/21 11:36:27;;;;;;;0.00;0.00;;;;;;;;;;5053574;28;20383;-83
2022/08/21 11:39:06;;;;;;;0.00;0.00;;;;;;;;;;5053578;28;20048;-81
2022/08/21 11:41:36;;;;;;;0.00;0.00;;;;;;;;;;5053450;28;20181;-83
2022/08/21 11:44:09;;;;;;;0.00;0.00;;;;;;;;;;5035210;28;20506;-83
2022/08/21 11:46:44;;;;;;;0.00;0.00;;;;;;;;;;5053205;28;20438;-82
2022/08/21 11:49:10;;;;;;;;;;;;;;;;;;5035869;28;20056;-82
2022/08/21 11:51:44;;;;;;;0.00;0.00;;;;;;;;;;5035664;28;19916;-82
2022/08/21 11:54:29;;;;;;;0.00;0.00;;;;;;;;;;5053191;28;20033;-82
2022/08/21 11:57:08;;;;;;;0.00;0.00;;;;;;;;;;5034450;28;20044;-82
2022/08/21 11:59:43;;;;;;;0.00;0.00;;;;;;;;;;5053233;28;20044;-82
2022/08/21 12:02:09;;;;;;;;;;;;;;;;;;5035672;28;20056;-84
2022/08/21 12:04:42;;;;;;;0.00;0.00;;;;;;;;;;5034971;28;19916;-84
2022/08/21 12:07:16;;;;;;;0.00;0.00;;;;;;;;;;5053358;28;20121;-83
2022/08/21 12:09:51;;;;;;;0.00;0.00;;;;;;;;;;5053020;28;20037;-83
2022/08/21 12:12:29;;;;;;;0.00;0.00;;;;;;;;;;5052893;28;20387;-83
2022/08/21 12:15:14;;;;;;;0.00;0.00;;;;;;;;;;5034942;28;20072;-80
2022/08/21 12:17:41;;;;;;;0.00;0.00;;;;;;;;;;5052074;28;20453;-81
2022/08/21 12:20:26;;;;;;;0.00;0.00;;;;;;;;;;5052830;28;20383;-83
2022/08/21 12:22:53;;;;;;;0.00;0.00;;;;;;;;;;5035112;28;20392;-82
2022/08/21 12:25:20;;;;;;;0.20;0.10;;;;;;;;;;5034874;28;20049;-82
2022/08/21 12:28:06;;;;;;;0.57;0.28;;;;;;;;;;5052879;28;20079;-82
2022/08/21 12:30:40;;;;;;;0.00;0.00;;;;;;;;;;5034738;28;20558;-82
2022/08/21 12:33:19;;;;;;;0.00;0.00;;;;;;;;;;5034421;28;20048;-82
2022/08/21 12:35:45;;;;;;;0.00;0.00;;;;;;;;;;5034674;28;20126;-82
2022/08/21 12:38:17;;;;;;;0.00;0.00;;;;;;;;;;5052868;28;20118;-83
2022/08/21 12:40:52;;;;;;;0.00;0.00;;;;;;;;;;5034761;28;20388;-82
2022/08/21 12:43:21;;;;;;;0.00;0.00;;;;;;;;;;5034632;28;20041;-82
2022/08/21 12:45:48;;;;;;;0.00;0.00;;;;;;;;;;5051707;28;20044;-83
2022/08/21 12:48:18;;;;;;;0.00;0.00;;;;;;;;;;5052807;28;20044;-81
2022/08/21 12:51:05;;;;;;;0.00;0.00;;;;;;;;;;5052395;28;20123;-83
2022/08/21 12:53:34;;;;;;;0.00;0.00;;;;;;;;;;5034376;28;20076;-82
2022/08/21 12:56:04;;;;;;;0.00;0.00;;;;;;;;;;5034644;28;20049;-82
2022/08/21 12:58:30;;;;;;;0.00;0.00;;;;;;;;;;5052444;28;20064;-82
2022/08/21 13:01:07;;;;;;;0.00;0.00;;;;;;;;;;5052377;28;20049;-81
2022/08/21 13:03:38;;;;;;;0.00;0.00;;;;;;;;;;5052595;28;20055;-82
2022/08/21 13:06:05;;;;;;;0.00;0.00;;;;;;;;;;5052292;28;20045;-82
2022/08/21 13:08:32;;;;;;;0.00;0.00;;;;;;;;;;5036004;28;20375;-82
2022/08/21 13:11:04;;;;;;;0.00;0.00;;;;;;;;;;5055996;28;20464;-82
2022/08/21 13:13:30;;;;;;;0.00;0.00;;;;;;;;;;5056123;28;20446;-83
2022/08/21 13:16:00;;;;;;;0.00;0.00;;;;;;;;;;5038369;28;20045;-82
2022/08/21 13:18:28;;;;;;;0.00;0.00;;;;;;;;;;5056353;28;20033;-82
2022/08/21 13:21:03;;;;;;;0.00;0.00;;;;;;;;;;5056209;28;20045;-82
2022/08/21 13:23:30;;;;;;;0.00;0.00;;;;;;;;;;5056283;28;20045;-82
2022/08/21 13:25:57;;;;;;;0.00;0.00;;;;;;;;;;5038169;28;20550;-83
2022/08/21 13:28:23;;;;;;;0.00;0.00;;;;;;;;;;5038406;28;20044;-83
2022/08/21 13:30:55;;;;;;;0.00;0.00;;;;;;;;;;5055687;28;20483;-82
2022/08/21 13:33:23;;;;;;;0.00;0.00;;;;;;;;;;5055974;28;20056;-83
2022/08/21 13:35:52;;;;;;;0.00;0.00;;;;;;;;;;5055593;28;20480;-84
2022/08/21 13:38:20;;;;;;;0.00;0.00;;;;;;;;;;5055921;28;20059;-83
2022/08/21 13:40:51;;;;;;;0.00;0.00;;;;;;;;;;5055598;28;20040;-83
2022/08/21 13:43:19;;;;;;;0.00;0.00;;;;;;;;;;5037720;28;20134;-82
2022/08/21 13:45:48;;;;;;;0.00;0.00;;;;;;;;;;5055500;28;20166;-84
2022/08/21 13:48:14;;;;;;;0.00;0.00;;;;;;;;;;5038448;28;20174;-83
2022/08/21 13:50:41;;;;;;;0.00;0.00;;;;;;;;;;5055620;28;20387;-82
2022/08/21 13:53:08;;;;;;;0.00;0.00;;;;;;;;;;5037660;28;20123;-83
2022/08/21 13:55:36;;;;;;;0.00;0.00;;;;;;;;;;5037762;28;20391;-82
2022/08/21 13:58:03;;;;;;;0.00;0.00;;;;;;;;;;5055275;28;20492;-82
2022/08/21 14:00:30;;;;;;;0.00;0.00;;;;;;;;;;5055118;28;20480;-82
2022/08/21 14:03:01;;;;;;;0.00;0.00;;;;;;;;;;5055493;28;20050;-82
2022/08/21 14:05:29;;;;;;;0.00;0.00;;;;;;;;;;5055445;28;20041;-82
2022/08/21 14:08:04;;;;;;;0.00;0.00;;;;;;;;;;5055253;28;20488;-82
2022/08/21 14:10:30;;;;;;;0.00;0.00;;;;;;;;;;5055057;28;20049;-82
2022/08/21 14:13:03;;;;;;;0.00;0.00;;;;;;;;;;5055228;28;20047;-83
2022/08/21 14:15:31;;;;;;;0.00;0.00;;;;;;;;;;5036990;28;20476;-82
2022/08/21 14:18:14;;;;;;;0.00;0.00;;;;;;;;;;5055270;28;20450;-82
2022/08/21 14:20:40;;;;;;;0.00;0.00;;;;;;;;;;5054062;28;20575;-82
2022/08/21 14:23:06;;;;;;;0.00;0.00;;;;;;;;;;5054839;28;20048;-82
2022/08/21 14:25:43;;;;;;;0.00;0.00;;;;;;;;;;5054924;28;20047;-81
2022/08/21 14:28:15;;;;;;;0.00;0.00;;;;;;;;;;5055161;28;20398;-82
2022/08/21 14:30:42;;;;;;;0.00;0.00;;;;;;;;;;5054576;28;20502;-84
2022/08/21 14:33:10;;;;;;;0.00;0.00;;;;;;;;;;5054805;28;20044;-82
2022/08/21 14:35:36;;;;;;;0.00;0.00;;;;;;;;;;5036953;28;20064;-82
2022/08/21 14:38:03;;;;;;;0.00;0.00;;;;;;;;;;5054649;28;20503;-82
2022/08/21 14:40:29;;;;;;;0.00;0.00;;;;;;;;;;5054497;28;20064;-82
2022/08/21 14:42:55;;;;;;;0.00;0.00;;;;;;;;;;5054756;28;20041;-80
2022/08/21 14:45:29;;;;;;;0.00;0.00;;;;;;;;;;5036392;28;20045;-82
2022/08/21 14:47:56;;;;;;;0.00;0.00;;;;;;;;;;5054675;28;20041;-82
2022/08/21 14:50:22;;;;;;;0.00;0.00;;;;;;;;;;5036521;28;20059;-82
2022/08/21 14:52:48;;;;;;;0.00;0.00;;;;;;;;;;5054168;28;20060;-83
2022/08/21 14:55:15;;;;;;;0.00;0.00;;;;;;;;;;5036743;28;20500;-82